createdAt,value
2019-01-18T00:00:03.052Z,23.1
2019-01-18T00:00:53.032Z,23.1
2019-01-18T00:01:43.651Z,23.1
2019-01-18T00:02:32.571Z,23.1
2019-01-18T00:03:38.449Z,23.1
2019-01-18T00:04:14.104Z,23.1
2019-01-18T00:05:03.746Z,23
2019-01-18T00:05:53.661Z,23
2019-01-18T00:06:43.688Z,23.1
2019-01-18T00:07:33.996Z,23
2019-01-18T00:08:23.606Z,23
2019-01-18T00:09:12.763Z,23
2019-01-18T00:10:03.450Z,23
2019-01-18T00:10:53.961Z,22.9
2019-01-18T00:11:43.476Z,23
2019-01-18T00:12:34.639Z,22.9
2019-01-18T00:13:23.298Z,22.9
2019-01-18T00:14:14.205Z,22.9
2019-01-18T00:15:04.603Z,22.9
2019-01-18T00:15:55.443Z,22.9
2019-01-18T00:16:43.523Z,22.9
2019-01-18T00:17:33.635Z,22.9
2019-01-18T00:18:24.478Z,22.9
2019-01-18T00:19:13.976Z,22.9
2019-01-18T00:20:04.925Z,22.9
2019-01-18T00:20:54.103Z,22.8
2019-01-18T00:21:44.210Z,22.8
2019-01-18T00:22:35.305Z,22.8
2019-01-18T00:23:25.090Z,22.8
2019-01-18T00:24:15.695Z,22.8
2019-01-18T00:25:05.510Z,22.8
2019-01-18T00:25:54.767Z,22.8
2019-01-18T00:26:45.054Z,22.8
2019-01-18T00:27:35.680Z,22.8
2019-01-18T00:28:25.325Z,22.8
2019-01-18T00:29:14.477Z,22.7
2019-01-18T00:30:05.087Z,22.7
2019-01-18T00:30:55.157Z,22.7
2019-01-18T00:31:44.905Z,22.7
2019-01-18T00:32:35.281Z,22.7
2019-01-18T00:33:25.066Z,22.7
2019-01-18T00:34:15.631Z,22.7
2019-01-18T00:35:05.989Z,22.6
2019-01-18T00:35:55.254Z,22.6
2019-01-18T00:36:44.994Z,22.6
2019-01-18T00:37:35.318Z,22.6
2019-01-18T00:38:25.699Z,22.6
2019-01-18T00:39:16.316Z,22.6
2019-01-18T00:40:06.061Z,22.6
2019-01-18T00:40:55.776Z,22.6
2019-01-18T03:08:48.792Z,24.3
2019-01-18T03:09:37.265Z,24.1
2019-01-18T03:10:29.260Z,24.1
2019-01-18T03:11:18.705Z,24
2019-01-18T03:12:08.569Z,23.9
2019-01-18T03:12:59.374Z,23.9
2019-01-18T03:13:48.599Z,23.8
2019-01-18T03:14:39.164Z,24.1
2019-01-18T03:15:29.274Z,24.6
2019-01-18T03:16:18.231Z,25.1
2019-01-18T03:17:08.360Z,25.5
2019-01-18T03:17:58.919Z,25.7
2019-01-18T03:18:49.291Z,25.8
2019-01-18T03:19:40.121Z,25.8
2019-01-18T03:20:29.347Z,25.8
2019-01-18T03:21:19.902Z,25.6
2019-01-18T03:22:22.982Z,25.3
2019-01-18T03:23:50.091Z,24.8
2019-01-18T03:24:39.444Z,24.6
2019-01-18T03:25:29.936Z,24.4
2019-01-18T03:26:19.750Z,24.3
2019-01-18T03:27:10.071Z,24.2
2019-01-18T03:27:59.892Z,24.1
2019-01-18T03:28:50.267Z,24.1
2019-01-18T03:29:39.989Z,24
2019-01-18T03:30:31.681Z,23.9
2019-01-18T03:31:20.909Z,23.8
2019-01-18T03:32:10.634Z,23.8
2019-01-18T03:33:01.219Z,23.8
2019-01-18T03:33:49.540Z,23.7
2019-01-18T03:34:40.593Z,23.6
2019-01-18T03:35:30.665Z,23.6
2019-01-18T03:36:19.922Z,23.6
2019-01-18T03:37:10.035Z,23.6
2019-01-18T03:38:00.873Z,23.9
2019-01-18T03:38:50.900Z,24.6
2019-01-18T03:39:41.010Z,25.1
2019-01-18T03:40:31.025Z,25.6
2019-01-18T03:41:20.010Z,25.8
2019-01-18T03:42:10.343Z,25.9
2019-01-18T03:43:01.068Z,26
2019-01-18T03:43:50.892Z,25.9
2019-01-18T03:44:39.970Z,25.8
2019-01-18T03:45:30.812Z,25.6
2019-01-18T03:46:21.122Z,25.3
2019-01-18T03:47:10.960Z,25.1
2019-01-18T03:48:00.945Z,24.8
2019-01-18T03:48:50.710Z,24.7
2019-01-18T03:49:41.591Z,24.5
2019-01-18T03:50:31.652Z,24.3
2019-01-18T03:51:21.414Z,24.3
2019-01-18T03:52:12.034Z,24.2
2019-01-18T03:53:02.651Z,24.1
2019-01-18T03:53:51.526Z,24.1
2019-01-18T03:54:41.772Z,23.9
2019-01-18T03:55:32.279Z,23.9
2019-01-18T03:56:21.774Z,23.8
2019-01-18T03:57:11.827Z,23.8
2019-01-18T03:58:02.147Z,23.9
2019-01-18T03:58:52.474Z,24.3
2019-01-18T03:59:41.736Z,24.9
2019-01-18T04:00:36.738Z,25.3
2019-01-18T04:01:22.729Z,25.6
2019-01-18T04:02:11.051Z,25.8
2019-01-18T04:03:02.402Z,25.9
2019-01-18T04:03:52.451Z,25.9
2019-01-18T04:04:42.121Z,25.8
2019-01-18T04:05:32.680Z,25.5
2019-01-18T04:06:23.296Z,25.3
2019-01-18T04:07:13.334Z,25
2019-01-18T04:08:02.803Z,24.8
2019-01-18T04:08:53.825Z,24.6
2019-01-18T04:09:44.003Z,24.4
2019-01-18T04:10:33.006Z,24.3
2019-01-18T04:11:23.283Z,24.3
2019-01-18T04:12:13.433Z,24.1
2019-01-18T04:13:02.893Z,24.1
2019-01-18T04:13:52.170Z,24
2019-01-18T04:14:43.018Z,23.9
2019-01-18T04:15:31.529Z,23.9
2019-01-18T04:16:23.174Z,23.8
2019-01-18T04:17:13.245Z,23.8
2019-01-18T04:18:02.542Z,23.8
2019-01-18T04:18:53.662Z,23.8
2019-01-18T04:19:44.125Z,23.7
2019-01-18T04:20:33.645Z,23.9
2019-01-18T04:21:24.249Z,24.4
2019-01-18T04:22:14.590Z,25.1
2019-01-18T04:23:04.412Z,25.5
2019-01-18T04:23:53.978Z,25.8
2019-01-18T04:24:43.944Z,26
2019-01-18T04:25:33.842Z,26.1
2019-01-18T04:26:24.890Z,26.1
2019-01-18T04:27:14.622Z,25.9
2019-01-18T04:28:03.905Z,25.8
2019-01-18T04:28:54.285Z,25.6
2019-01-18T04:29:43.769Z,25.4
2019-01-18T04:30:42.728Z,25.1
2019-01-18T04:31:24.941Z,24.9
2019-01-18T04:32:14.736Z,24.7
2019-01-18T04:33:04.831Z,24.6
2019-01-18T04:33:55.152Z,24.4
2019-01-18T04:34:45.159Z,24.3
2019-01-18T04:35:35.584Z,24.3
2019-01-18T04:36:25.659Z,24.2
2019-01-18T04:37:15.324Z,24.1
2019-01-18T04:38:05.191Z,24.1
2019-01-18T04:38:55.498Z,24
2019-01-18T04:39:44.979Z,24.2
2019-01-18T04:40:35.415Z,24.7
2019-01-18T04:41:25.666Z,25.3
2019-01-18T04:42:15.406Z,25.7
2019-01-18T04:43:04.645Z,25.9
2019-01-18T04:43:56.184Z,26.1
2019-01-18T04:44:45.885Z,26.1
2019-01-18T04:45:35.618Z,26.1
2019-01-18T04:46:25.968Z,25.9
2019-01-18T04:47:15.479Z,25.8
2019-01-18T04:48:04.955Z,25.5
2019-01-18T04:48:55.285Z,25.3
2019-01-18T04:49:45.675Z,25
2019-01-18T04:50:36.235Z,24.9
2019-01-18T04:51:25.738Z,24.7
2019-01-18T04:52:15.285Z,24.6
2019-01-18T04:53:05.838Z,24.4
2019-01-18T04:53:55.345Z,24.4
2019-01-18T04:54:45.753Z,24.3
2019-01-18T04:55:50.948Z,24.2
2019-01-18T04:56:25.248Z,24.1
2019-01-18T04:57:31.623Z,24.1
2019-01-18T04:58:05.976Z,24
2019-01-18T04:58:56.509Z,24
2019-01-18T04:59:46.867Z,23.9
2019-01-18T05:00:44.846Z,24
2019-01-18T05:01:27.297Z,24.5
2019-01-18T05:02:17.056Z,25
2019-01-18T05:03:06.827Z,25.4
2019-01-18T05:03:57.465Z,25.8
2019-01-18T05:04:46.723Z,26
2019-01-18T05:05:36.197Z,26.1
2019-01-18T05:06:25.967Z,26.1
2019-01-18T05:07:17.103Z,26.1
2019-01-18T05:08:06.905Z,25.9
2019-01-18T05:08:57.250Z,25.7
2019-01-18T05:09:46.679Z,25.4
2019-01-18T05:10:37.317Z,25.2
2019-01-18T05:11:28.189Z,25
2019-01-18T05:12:17.206Z,24.8
2019-01-18T05:13:08.384Z,24.7
2019-01-18T05:13:57.655Z,24.6
2019-01-18T05:14:47.338Z,24.4
2019-01-18T05:15:36.630Z,24.4
2019-01-18T05:16:28.591Z,24.3
2019-01-18T05:17:18.097Z,24.2
2019-01-18T05:18:08.217Z,24.2
2019-01-18T05:18:57.095Z,24.1
2019-01-18T05:19:48.899Z,24
2019-01-18T05:20:38.036Z,23.9
2019-01-18T05:21:28.076Z,23.9
2019-01-18T05:22:18.404Z,23.9
2019-01-18T05:23:08.483Z,23.9
2019-01-18T05:23:57.651Z,24.3
2019-01-18T05:24:55.666Z,24.9
2019-01-18T05:25:37.528Z,25.4
2019-01-18T05:26:27.891Z,25.7
2019-01-18T05:27:18.174Z,25.9
2019-01-18T05:28:08.326Z,26
2019-01-18T05:28:57.748Z,26.1
2019-01-18T05:29:46.707Z,25.9
2019-01-18T05:30:38.759Z,25.8
2019-01-18T05:31:28.721Z,25.6
2019-01-18T05:32:17.751Z,25.4
2019-01-18T05:33:08.708Z,25.1
2019-01-18T05:33:58.407Z,24.9
2019-01-18T05:34:48.507Z,24.8
2019-01-18T05:35:39.423Z,24.6
2019-01-18T05:36:29.066Z,24.5
2019-01-18T05:37:18.068Z,24.4
2019-01-18T05:38:09.282Z,24.3
2019-01-18T05:38:59.073Z,24.3
2019-01-18T05:39:48.797Z,24.2
2019-01-18T05:40:38.053Z,24.1
2019-01-18T05:41:29.473Z,24.1
2019-01-18T05:42:19.730Z,24
2019-01-18T05:43:10.077Z,23.9
2019-01-18T05:43:59.365Z,23.9
2019-01-18T05:44:49.577Z,24.2
2019-01-18T05:45:39.740Z,24.8
2019-01-18T05:46:29.021Z,25.4
2019-01-18T05:47:19.295Z,25.8
2019-01-18T05:48:09.010Z,26
2019-01-18T05:49:00.188Z,26.1
2019-01-18T05:49:50.277Z,26.2
2019-01-18T05:50:38.467Z,26.1
2019-01-18T05:51:28.994Z,26.1
2019-01-18T05:52:20.459Z,25.9
2019-01-18T05:53:10.462Z,25.6
2019-01-18T05:54:01.029Z,25.4
2019-01-18T05:54:49.466Z,25.1
2019-01-18T05:55:41.246Z,24.9
2019-01-18T05:56:30.403Z,24.8
2019-01-18T05:57:20.201Z,24.6
2019-01-18T05:58:09.732Z,24.6
2019-01-18T05:59:00.270Z,24.4
2019-01-18T05:59:50.640Z,24.4
2019-01-18T06:00:40.713Z,24.3
2019-01-18T06:01:33.303Z,24.2
2019-01-18T06:02:21.066Z,24.2
2019-01-18T06:03:11.409Z,24.1
2019-01-18T06:04:00.950Z,24.1
2019-01-18T06:06:49.241Z,24.2
2019-01-18T06:07:38.491Z,24.9
2019-01-18T06:08:29.499Z,25.4
2019-01-18T06:09:19.716Z,25.8
2019-01-18T06:10:09.754Z,26.1
2019-01-18T06:10:59.770Z,26.2
2019-01-18T06:11:49.553Z,26.2
2019-01-18T06:12:39.956Z,26.2
2019-01-18T06:13:29.959Z,26
2019-01-18T06:14:19.170Z,25.8
2019-01-18T06:15:09.591Z,25.5
2019-01-18T06:15:59.926Z,25.3
2019-01-18T06:16:49.913Z,25.1
2019-01-18T06:17:40.553Z,24.8
2019-01-18T06:18:29.510Z,24.7
2019-01-18T06:19:19.510Z,24.6
2019-01-18T06:20:09.745Z,24.5
2019-01-18T06:21:00.416Z,24.4
2019-01-18T06:21:50.525Z,24.3
2019-01-18T06:22:40.581Z,24.3
2019-01-18T06:23:30.753Z,24.2
2019-01-18T06:24:19.943Z,24.1
2019-01-18T06:25:11.121Z,24.1
2019-01-18T06:26:00.612Z,24.1
2019-01-18T06:26:51.236Z,24
2019-01-18T06:27:40.793Z,24.2
2019-01-18T06:28:30.694Z,24.7
2019-01-18T06:29:20.712Z,25.3
2019-01-18T06:30:10.819Z,25.7
2019-01-18T06:31:08.038Z,26
2019-01-18T06:31:51.179Z,26.1
2019-01-18T06:32:40.925Z,26.2
2019-01-18T06:33:32.667Z,26.2
2019-01-18T06:34:21.472Z,26.1
2019-01-18T06:35:11.769Z,25.9
2019-01-18T06:36:01.227Z,25.7
2019-01-18T06:36:50.579Z,25.4
2019-01-18T06:37:41.119Z,25.2
2019-01-18T06:38:31.897Z,25
2019-01-18T06:39:21.957Z,24.8
2019-01-18T06:40:11.803Z,24.7
2019-01-18T06:41:01.776Z,24.6
2019-01-18T06:41:51.586Z,24.5
2019-01-18T06:42:41.358Z,24.4
2019-01-18T06:43:32.228Z,24.3
2019-01-18T06:44:22.304Z,24.3
2019-01-18T06:45:11.791Z,24.2
2019-01-18T06:46:02.126Z,24.1
2019-01-18T06:46:51.175Z,24.1
2019-01-18T06:47:42.287Z,24
2019-01-18T06:48:32.048Z,24
2019-01-18T06:49:22.347Z,24.4
2019-01-18T06:50:12.189Z,24.9
2019-01-18T06:51:02.716Z,25.4
2019-01-18T06:51:52.258Z,25.8
2019-01-18T06:52:42.626Z,25.9
2019-01-18T06:53:32.336Z,26.1
2019-01-18T06:54:22.680Z,26.1
2019-01-18T06:55:12.218Z,26
2019-01-18T06:56:02.295Z,25.8
2019-01-18T06:56:52.587Z,25.7
2019-01-18T06:57:42.983Z,25.4
2019-01-18T06:58:32.702Z,25.2
2019-01-18T06:59:23.114Z,24.9
2019-01-18T07:00:12.948Z,24.8
2019-01-18T07:01:09.470Z,24.7
2019-01-18T07:01:52.085Z,24.6
2019-01-18T07:02:42.990Z,24.4
2019-01-18T07:03:33.310Z,24.4
2019-01-18T07:04:23.467Z,24.3
2019-01-18T07:06:48.586Z,23.9
2019-01-18T07:07:38.025Z,24
2019-01-18T07:08:28.672Z,23.9
2019-01-18T07:09:19.280Z,23.9
2019-01-18T07:10:09.064Z,23.9
2019-01-18T07:10:58.869Z,23.8
2019-01-18T07:11:48.074Z,23.8
2019-01-18T07:12:38.942Z,24.1
2019-01-18T07:13:28.987Z,24.6
2019-01-18T07:14:18.567Z,25.1
2019-01-18T07:15:09.807Z,25.6
2019-01-18T07:15:59.969Z,25.8
2019-01-18T07:16:49.506Z,25.9
2019-01-18T07:17:38.762Z,25.9
2019-01-18T07:18:30.432Z,25.9
2019-01-18T07:19:19.664Z,25.9
2019-01-18T07:20:09.454Z,25.7
2019-01-18T07:20:59.742Z,25.5
2019-01-18T07:21:49.566Z,25.3
2019-01-18T07:22:39.319Z,25
2019-01-18T07:23:31.268Z,24.8
2019-01-18T07:24:20.881Z,24.7
2019-01-18T07:25:10.094Z,24.6
2019-01-18T07:25:59.399Z,24.4
2019-01-18T07:26:49.913Z,24.3
2019-01-18T07:27:39.303Z,24.3
2019-01-18T07:28:30.038Z,24.2
2019-01-18T07:29:20.936Z,24.1
2019-01-18T07:30:10.472Z,24.1
2019-01-18T07:30:59.891Z,24.1
2019-01-18T07:31:50.270Z,24
2019-01-18T07:32:39.753Z,24.1
2019-01-18T07:33:30.646Z,24.4
2019-01-18T07:34:20.965Z,25
2019-01-18T07:35:12.355Z,25.4
2019-01-18T07:36:01.345Z,25.8
2019-01-18T07:36:50.866Z,25.9
2019-01-18T07:37:40.988Z,26
2019-01-18T07:38:30.417Z,26
2019-01-18T07:39:27.372Z,26
2019-01-18T07:40:11.718Z,25.8
2019-01-18T07:41:01.140Z,25.6
2019-01-18T07:41:50.712Z,25.4
2019-01-18T07:42:41.883Z,25.2
2019-01-18T07:43:31.937Z,24.9
2019-01-18T07:44:21.755Z,24.8
2019-01-18T07:45:11.485Z,24.6
2019-01-18T07:46:00.708Z,24.6
2019-01-18T07:46:51.657Z,24.4
2019-01-18T07:47:41.647Z,24.3
2019-01-18T07:48:31.467Z,24.3
2019-01-18T07:49:22.077Z,24.3
2019-01-18T07:50:11.597Z,24.2
2019-01-18T07:51:01.284Z,24.1
2019-01-18T07:51:51.675Z,24.1
2019-01-18T07:52:42.230Z,24.1
2019-01-18T07:53:31.752Z,24
2019-01-18T07:54:22.064Z,24.1
2019-01-18T07:55:11.567Z,24.4
2019-01-18T07:56:01.942Z,25
2019-01-18T07:56:51.724Z,25.5
2019-01-18T07:57:42.599Z,25.8
2019-01-18T07:58:32.057Z,26
2019-01-18T07:59:22.143Z,26.1
2019-01-18T08:00:12.779Z,26.1
2019-01-18T08:01:04.226Z,26
2019-01-18T08:01:52.053Z,25.8
2019-01-18T08:02:42.931Z,25.6
2019-01-18T08:03:32.729Z,25.4
2019-01-18T08:04:22.254Z,25.1
2019-01-18T08:05:12.656Z,24.9
2019-01-18T08:06:02.216Z,24.8
2019-01-18T08:06:52.925Z,24.7
2019-01-18T08:07:41.901Z,24.6
2019-01-18T08:08:32.478Z,24.4
2019-01-18T08:09:23.441Z,24.4
2019-01-18T08:10:13.428Z,24.3
2019-01-18T08:11:03.513Z,24.3
2019-01-18T08:11:53.051Z,24.2
2019-01-18T08:12:42.544Z,24.1
2019-01-18T08:13:33.098Z,24.1
2019-01-18T08:14:23.493Z,24
2019-01-18T08:15:13.510Z,24.1
2019-01-18T08:16:03.861Z,24.4
2019-01-18T08:16:54.153Z,25
2019-01-18T08:17:44.003Z,25.6
2019-01-18T08:18:33.424Z,25.9
2019-01-18T08:19:23.794Z,26
2019-01-18T08:20:13.868Z,26.1
2019-01-18T08:21:04.493Z,26.1
2019-01-18T08:21:54.545Z,26.1
2019-01-18T08:22:44.043Z,25.9
2019-01-18T08:23:34.072Z,25.7
2019-01-18T08:24:24.390Z,25.4
2019-01-18T08:25:14.195Z,25.1
2019-01-18T08:26:03.945Z,24.9
2019-01-18T08:26:53.491Z,24.8
2019-01-18T08:27:44.382Z,24.7
2019-01-18T08:28:34.975Z,24.6
2019-01-18T08:29:24.480Z,24.4
2019-01-18T08:30:14.319Z,24.4
2019-01-18T08:31:05.136Z,24.3
2019-01-18T08:31:55.195Z,24.3
2019-01-18T08:32:44.742Z,24.2
2019-01-18T08:33:33.937Z,24.1
2019-01-18T08:34:24.050Z,24.1
2019-01-18T08:35:15.212Z,24.1
2019-01-18T08:36:04.999Z,24
2019-01-18T08:36:55.012Z,24.1
2019-01-18T08:37:45.606Z,24.6
2019-01-18T08:38:34.085Z,25.1
2019-01-18T08:39:25.179Z,25.6
2019-01-18T08:40:15.532Z,25.9
2019-01-18T08:41:05.906Z,26.1
2019-01-18T08:41:55.096Z,26.1
2019-01-18T08:42:45.396Z,26.1
2019-01-18T08:43:34.909Z,26
2019-01-18T08:44:25.221Z,25.9
2019-01-18T08:45:15.385Z,25.7
2019-01-18T08:46:04.037Z,25.4
2019-01-18T08:46:55.496Z,25.2
2019-01-18T08:47:45.789Z,25
2019-01-18T08:48:35.851Z,24.8
2019-01-18T08:49:25.425Z,24.8
2019-01-18T08:50:16.236Z,24.6
2019-01-18T08:51:07.306Z,24.6
2019-01-18T08:51:54.996Z,24.4
2019-01-18T08:52:46.608Z,24.4
2019-01-18T08:53:35.641Z,24.4
2019-01-18T08:54:26.750Z,24.3
2019-01-18T08:55:15.719Z,24.3
2019-01-18T08:56:06.318Z,24.3
2019-01-18T08:56:56.608Z,24.8
2019-01-18T08:57:45.915Z,25.3
2019-01-18T08:58:35.990Z,25.8
2019-01-18T08:59:26.000Z,26
2019-01-18T09:00:16.068Z,26.1
2019-01-18T09:01:06.116Z,26.2
2019-01-18T09:01:57.293Z,26.1
2019-01-18T09:02:46.470Z,26
2019-01-18T09:03:36.534Z,25.9
2019-01-18T09:04:26.310Z,25.6
2019-01-18T09:05:18.284Z,25.3
2019-01-18T09:06:07.040Z,25.1
2019-01-18T09:06:56.573Z,25
2019-01-18T09:07:46.808Z,24.8
2019-01-18T09:08:36.902Z,24.7
2019-01-18T09:09:26.982Z,24.6
2019-01-18T09:10:16.720Z,24.5
2019-01-18T09:11:06.788Z,24.4
2019-01-18T09:11:57.114Z,24.4
2019-01-18T09:12:47.984Z,24.3
2019-01-18T09:13:38.320Z,24.2
2019-01-18T09:14:30.089Z,24.1
2019-01-18T09:15:16.787Z,24.1
2019-01-18T09:16:07.093Z,24.1
2019-01-18T09:16:56.869Z,24.1
2019-01-18T09:17:47.512Z,24.1
2019-01-18T09:18:39.413Z,24.6
2019-01-18T09:19:27.611Z,25.2
2019-01-18T09:20:17.416Z,25.6
2019-01-18T09:21:08.291Z,25.9
2019-01-18T09:21:58.624Z,26
2019-01-18T09:22:48.131Z,26
2019-01-18T09:23:37.626Z,26
2019-01-18T09:24:28.316Z,25.8
2019-01-18T09:25:18.299Z,25.6
2019-01-18T09:26:08.374Z,25.4
2019-01-18T09:26:58.666Z,25.1
2019-01-18T09:27:48.206Z,24.9
2019-01-18T09:28:37.673Z,24.7
2019-01-18T09:29:28.916Z,24.5
2019-01-18T09:30:18.065Z,24.3
2019-01-18T09:31:08.971Z,24.3
2019-01-18T09:31:59.046Z,24.1
2019-01-18T09:32:48.808Z,24.1
2019-01-18T09:33:39.148Z,24.1
2019-01-18T09:34:29.502Z,24
2019-01-18T09:35:18.996Z,23.9
2019-01-18T09:36:09.020Z,23.9
2019-01-18T09:36:59.057Z,24.2
2019-01-18T09:37:49.466Z,24.8
2019-01-18T09:38:39.539Z,25.3
2019-01-18T09:39:29.267Z,25.6
2019-01-18T09:40:20.220Z,25.9
2019-01-18T09:41:08.540Z,25.9
2019-01-18T09:41:59.983Z,26
2019-01-18T09:42:49.000Z,25.9
2019-01-18T09:43:39.560Z,25.8
2019-01-18T09:44:29.915Z,25.6
2019-01-18T09:45:20.501Z,25.4
2019-01-18T09:46:09.169Z,25.1
2019-01-18T09:46:59.222Z,24.9
2019-01-18T09:47:50.119Z,24.7
2019-01-18T09:48:39.340Z,24.5
2019-01-18T09:49:30.237Z,24.4
2019-01-18T09:50:19.508Z,24.3
2019-01-18T09:51:10.579Z,24.2
2019-01-18T09:52:00.389Z,24.1
2019-01-18T09:52:50.182Z,24
2019-01-18T09:53:40.802Z,23.9
2019-01-18T09:54:30.034Z,23.9
2019-01-18T09:55:20.080Z,23.9
2019-01-18T09:56:10.141Z,23.8
2019-01-18T09:57:00.235Z,23.8
2019-01-18T09:57:50.395Z,23.9
2019-01-18T09:58:39.544Z,24.4
2019-01-18T09:59:29.916Z,25
2019-01-18T10:00:20.207Z,25.4
2019-01-18T10:01:11.999Z,25.7
2019-01-18T10:02:00.304Z,25.9
2019-01-18T10:02:50.392Z,25.9
2019-01-18T10:03:40.721Z,25.9
2019-01-18T10:04:30.492Z,25.8
2019-01-18T10:05:20.814Z,25.6
2019-01-18T10:07:48.476Z,24.8
2019-01-18T10:08:39.296Z,24.6
2019-01-18T10:09:29.138Z,24.4
2019-01-18T10:10:18.913Z,24.3
2019-01-18T10:11:08.144Z,24.2
2019-01-18T10:11:58.394Z,24.1
2019-01-18T10:12:48.510Z,24
2019-01-18T10:13:40.073Z,23.9
2019-01-18T10:14:29.136Z,23.9
2019-01-18T10:15:17.969Z,23.9
2019-01-18T10:16:09.399Z,23.8
2019-01-18T10:16:59.139Z,23.9
2019-01-18T10:17:49.645Z,24.3
2019-01-18T10:18:38.693Z,24.8
2019-01-18T10:19:29.465Z,25.3
2019-01-18T10:20:19.543Z,25.6
2019-01-18T10:21:09.688Z,25.8
2019-01-18T10:21:58.888Z,25.9
2019-01-18T10:22:48.685Z,25.9
2019-01-18T10:23:39.038Z,25.9
2019-01-18T10:24:31.070Z,25.7
2019-01-18T10:25:20.212Z,25.4
2019-01-18T10:26:09.982Z,25.2
2019-01-18T10:26:59.735Z,24.9
2019-01-18T10:27:49.795Z,24.8
2019-01-18T10:28:40.153Z,24.6
2019-01-18T10:29:36.620Z,24.4
2019-01-18T10:30:20.873Z,24.3
2019-01-18T10:31:10.354Z,24.3
2019-01-18T10:32:05.672Z,24.2
2019-01-18T10:32:50.460Z,24.1
2019-01-18T10:33:40.487Z,24
2019-01-18T10:34:31.407Z,23.9
2019-01-18T10:35:21.419Z,23.9
2019-01-18T10:36:09.815Z,23.9
2019-01-18T10:37:02.099Z,23.8
2019-01-18T10:37:51.139Z,23.8
2019-01-18T10:38:40.802Z,23.8
2019-01-18T10:39:31.664Z,24.2
2019-01-18T10:40:20.902Z,24.8
2019-01-18T10:41:11.256Z,25.3
2019-01-18T10:42:00.809Z,25.6
2019-01-18T10:42:51.401Z,25.8
2019-01-18T10:43:40.641Z,25.9
2019-01-18T10:44:31.579Z,25.9
2019-01-18T10:45:20.997Z,25.9
2019-01-18T10:46:11.054Z,25.7
2019-01-18T10:46:59.719Z,25.4
2019-01-18T10:47:50.635Z,25.2
2019-01-18T10:48:41.275Z,24.9
2019-01-18T10:49:32.129Z,24.8
2019-01-18T10:50:21.423Z,24.6
2019-01-18T10:51:12.009Z,24.4
2019-01-18T10:52:01.771Z,24.4
2019-01-18T10:52:51.285Z,24.3
2019-01-18T10:53:41.596Z,24.2
2019-01-18T10:54:32.195Z,24.1
2019-01-18T10:55:22.285Z,24.1
2019-01-18T10:56:12.081Z,24
2019-01-18T10:57:01.235Z,23.9
2019-01-18T10:57:52.473Z,23.9
2019-01-18T10:58:42.513Z,23.9
2019-01-18T10:59:32.809Z,24.3
2019-01-18T11:00:22.333Z,24.8
2019-01-18T11:01:12.688Z,25.3
2019-01-18T11:02:15.600Z,25.7
2019-01-18T11:02:51.859Z,25.9
2019-01-18T11:03:42.210Z,26
2019-01-18T11:04:32.255Z,26
2019-01-18T11:05:23.192Z,25.9
2019-01-18T11:06:13.000Z,25.8
2019-01-18T11:07:02.770Z,25.6
2019-01-18T11:07:52.231Z,25.4
2019-01-18T11:08:42.262Z,25.1
2019-01-18T11:09:32.880Z,24.9
2019-01-18T11:10:22.385Z,24.7
2019-01-18T11:11:11.970Z,24.6
2019-01-18T11:12:02.535Z,24.5
2019-01-18T11:12:53.350Z,24.4
2019-01-18T11:13:43.132Z,24.3
2019-01-18T11:14:33.500Z,24.2
2019-01-18T11:15:23.248Z,24.1
2019-01-18T11:16:13.084Z,24.1
2019-01-18T11:17:03.761Z,24.1
2019-01-18T11:17:54.006Z,24
2019-01-18T11:18:43.497Z,24
2019-01-18T11:19:33.019Z,24
2019-01-18T11:20:22.787Z,24.3
2019-01-18T11:21:14.209Z,24.8
2019-01-18T11:22:03.151Z,25.4
2019-01-18T11:22:53.789Z,25.8
2019-01-18T11:23:44.403Z,25.9
2019-01-18T11:24:34.316Z,26.1
2019-01-18T11:25:31.520Z,26.1
2019-01-18T11:26:14.066Z,26
2019-01-18T11:27:03.797Z,25.9
2019-01-18T11:27:54.116Z,25.7
2019-01-18T11:28:43.394Z,25.4
2019-01-18T11:29:34.269Z,25.3
2019-01-18T11:30:24.595Z,25
2019-01-18T11:31:14.661Z,24.8
2019-01-18T11:32:04.946Z,24.6
2019-01-18T11:32:54.183Z,24.5
2019-01-18T11:33:44.533Z,24.5
2019-01-18T11:34:33.450Z,24.4
2019-01-18T11:35:25.255Z,24.3
2019-01-18T11:36:14.388Z,24.3
2019-01-18T11:37:08.066Z,24.2
2019-01-18T11:37:53.978Z,24.1
2019-01-18T11:38:44.865Z,24.4
2019-01-18T11:39:34.681Z,24.9
2019-01-18T11:40:24.428Z,25.5
2019-01-18T11:41:15.078Z,25.9
2019-01-18T11:42:08.757Z,26.1
2019-01-18T11:42:55.279Z,26.3
2019-01-18T11:43:44.948Z,26.3
2019-01-18T11:44:35.315Z,26.3
2019-01-18T11:45:24.822Z,26.1
2019-01-18T11:46:14.272Z,25.9
2019-01-18T11:47:05.712Z,25.7
2019-01-18T11:47:55.532Z,25.4
2019-01-18T11:48:50.235Z,25.2
2019-01-18T11:49:35.647Z,25
2019-01-18T11:50:25.742Z,24.8
2019-01-18T11:51:15.735Z,24.8
2019-01-18T11:52:05.030Z,24.6
2019-01-18T11:52:54.737Z,24.6
2019-01-18T11:53:47.355Z,24.5
2019-01-18T11:54:36.258Z,24.4
2019-01-18T11:55:26.297Z,24.3
2019-01-18T11:56:16.692Z,24.3
2019-01-18T11:57:04.794Z,24.3
2019-01-18T11:57:55.979Z,24.2
2019-01-18T11:58:46.520Z,24.2
2019-01-18T11:59:36.849Z,24.5
2019-01-18T12:00:26.655Z,25.1
2019-01-18T12:01:16.424Z,25.6
2019-01-18T12:02:06.221Z,25.9
2019-01-18T12:02:56.654Z,26.1
2019-01-18T12:03:47.141Z,26.3
2019-01-18T12:04:36.421Z,26.3
2019-01-18T12:05:27.066Z,26.1
2019-01-18T12:07:48.022Z,25.4
2019-01-18T12:08:43.864Z,25.3
2019-01-18T12:09:28.951Z,25
2019-01-18T12:10:19.082Z,24.9
2019-01-18T12:11:09.668Z,24.8
2019-01-18T12:11:59.151Z,24.6
2019-01-18T12:12:48.631Z,24.5
2019-01-18T12:13:38.156Z,24.4
2019-01-18T12:14:29.651Z,24.4
2019-01-18T12:15:19.108Z,24.3
2019-01-18T12:16:08.339Z,24.3
2019-01-18T12:16:58.979Z,24.3
2019-01-18T12:17:49.012Z,24.2
2019-01-18T12:18:39.315Z,24.3
2019-01-18T12:19:29.101Z,24.8
2019-01-18T12:20:18.926Z,25.3
2019-01-18T12:21:08.400Z,25.8
2019-01-18T12:21:59.003Z,26.1
2019-01-18T12:22:50.178Z,26.3
2019-01-18T12:23:38.795Z,26.3
2019-01-18T12:24:29.460Z,26.3
2019-01-18T12:25:19.758Z,26.2
2019-01-18T12:26:09.318Z,25.9
2019-01-18T12:26:59.595Z,25.8
2019-01-18T12:27:49.135Z,25.5
2019-01-18T12:28:39.697Z,25.3
2019-01-18T12:29:31.355Z,25.1
2019-01-18T12:30:19.353Z,24.9
2019-01-18T12:31:10.990Z,24.8
2019-01-18T12:31:59.798Z,24.7
2019-01-18T12:32:49.788Z,24.6
2019-01-18T12:33:39.301Z,24.5
2019-01-18T12:34:30.263Z,24.4
2019-01-18T12:35:19.174Z,24.4
2019-01-18T12:36:09.486Z,24.4
2019-01-18T12:37:07.435Z,24.3
2019-01-18T12:37:49.622Z,24.3
2019-01-18T12:38:40.210Z,24.3
2019-01-18T12:39:31.295Z,24.6
2019-01-18T12:40:20.838Z,25.3
2019-01-18T12:41:10.045Z,25.8
2019-01-18T12:42:00.623Z,26.1
2019-01-18T12:42:50.413Z,26.3
2019-01-18T12:43:40.866Z,26.4
2019-01-18T12:44:31.375Z,26.4
2019-01-18T12:45:20.035Z,26.3
2019-01-18T12:46:10.083Z,26.2
2019-01-18T12:47:01.262Z,25.9
2019-01-18T12:47:51.614Z,25.7
2019-01-18T12:48:41.085Z,25.4
2019-01-18T12:49:31.458Z,25.3
2019-01-18T12:50:22.354Z,25.1
2019-01-18T12:51:13.040Z,24.9
2019-01-18T12:52:01.580Z,24.8
2019-01-18T12:52:51.092Z,24.7
2019-01-18T12:53:42.008Z,24.6
2019-01-18T12:54:32.364Z,24.6
2019-01-18T12:55:22.422Z,24.5
2019-01-18T12:56:12.149Z,24.4
2019-01-18T12:57:02.196Z,24.4
2019-01-18T12:57:52.439Z,24.4
2019-01-18T12:58:41.510Z,24.5
2019-01-18T12:59:32.449Z,25.1
2019-01-18T13:00:22.014Z,25.6
2019-01-18T13:01:12.491Z,26
2019-01-18T13:02:02.616Z,26.3
2019-01-18T13:02:52.346Z,26.4
2019-01-18T13:03:42.666Z,26.4
2019-01-18T13:04:32.239Z,26.3
2019-01-18T13:05:21.821Z,26.3
2019-01-18T13:06:11.999Z,25.9
2019-01-18T13:07:02.464Z,25.8
2019-01-18T13:07:51.906Z,25.5
2019-01-18T13:08:43.516Z,25.3
2019-01-18T13:09:33.336Z,25.1
2019-01-18T13:10:22.676Z,24.9
2019-01-18T13:11:12.128Z,24.8
2019-01-18T13:12:03.853Z,24.8
2019-01-18T13:12:53.126Z,24.6
2019-01-18T13:13:41.444Z,24.6
2019-01-18T13:14:32.618Z,24.6
2019-01-18T13:15:23.221Z,24.5
2019-01-18T13:16:13.060Z,24.4
2019-01-18T13:17:04.238Z,24.4
2019-01-18T13:17:53.366Z,24.7
2019-01-18T13:18:43.721Z,25.3
2019-01-18T13:19:33.812Z,25.8
2019-01-18T13:20:23.293Z,26.2
2019-01-18T13:21:13.078Z,26.4
2019-01-18T13:22:02.831Z,26.6
2019-01-18T13:22:53.500Z,26.6
2019-01-18T13:23:43.498Z,26.5
2019-01-18T13:24:33.622Z,26.4
2019-01-18T13:25:23.401Z,26.2
2019-01-18T13:26:14.325Z,25.9
2019-01-18T13:27:03.523Z,25.7
2019-01-18T13:27:53.765Z,25.4
2019-01-18T13:28:44.130Z,25.3
2019-01-18T13:29:34.202Z,25.1
2019-01-18T13:30:24.857Z,25
2019-01-18T13:31:14.272Z,24.9
2019-01-18T13:32:04.920Z,24.8
2019-01-18T13:32:54.712Z,24.7
2019-01-18T13:33:43.917Z,24.7
2019-01-18T13:34:34.292Z,24.6
2019-01-18T13:35:24.207Z,24.6
2019-01-18T13:36:14.102Z,24.5
2019-01-18T13:37:04.802Z,24.8
2019-01-18T13:37:55.306Z,25.4
2019-01-18T13:38:43.993Z,25.9
2019-01-18T13:39:34.962Z,26.3
2019-01-18T13:40:24.511Z,26.4
2019-01-18T13:41:14.523Z,26.6
2019-01-18T13:42:06.450Z,26.5
2019-01-18T13:42:54.316Z,26.4
2019-01-18T13:43:44.667Z,26.2
2019-01-18T13:44:35.539Z,25.9